Aviation Digital Data Service (ADDS)

Output produced by METARs form (0617 UTC 29 January 2015)
found at http://aviationweather.gov/adds/metars/
 
KBPT 290533Z 2906/3006 14005KT 1/4SM FG VV002 
     TEMPO 2914/2916 3SM BR SCT004 SCT250 
     FM291600 24009KT P6SM SCT250 
     FM300200 33008KT P6SM BKN050